Share

Annville, KY

7:18 PM EDT on April 23, 2014 (GMT -0400)
Southern McKee (KKYMCKEE2) Elev 1138 ft | 37.36 °N, 83.94 °W | Change Station
Active Advisory: Special Statement

Current weather conditions updated 0 second ago

Clear
Clear
59.9 °F
Feels Like 59.9 °F
N
0.0
Wind Variable Wind from North
Gusts 0.0 mph
Sunrise 6:50 AM
Sunset 8:18 PM
Moon Waning Crescent

Tomorrow is forecast to be Much Warmer than today. Light rain developing late tomorrow night.

Pressure 30.01 in
Visibility 10.0 miles
Clouds Clear
Dew Point 36 °F
Humidity 40%
Rainfall 0.00 in
Snow Depth Not available.
UV 1 out of 16
Pollen 10.00 out of 12
Air Quality Not available.
Flu Activity Sporadic
METAR KLOZ 232253Z AUTO 03006KT 10SM CLR 17/M03 A3001 RMK AO2 SLP161 T01721028

More Conditions Fewer Conditions

Pressure 30.01 in
Visibility 10.0 miles
Clouds Clear
Dew Point 36 °F
Humidity 40%
Rainfall 0.00 in
Snow Depth Not available.
UV 1 out of 16
Pollen 10.00 out of 12
Air Quality Not available.
Flu Activity Sporadic
METAR KLOZ 232253Z AUTO 03006KT 10SM CLR 17/M03 A3001 RMK AO2 SLP161 T01721028

More Conditions Fewer Conditions

10-Day Weather Forecast

Almanac

Astronomy

Apr. 23, 2014 Rise Set
Actual Time 6:50 AM EDT 8:18 PM EDT
Civil Twilight 6:23 AM EDT 8:45 PM EDT
Nautical Twilight 5:50 AM EDT 9:18 PM EDT
Astronomical Twilight 5:15 AM EDT 9:53 PM EDT
Moon 3:13 AM EDT 2:33 PM EDT
Length of Visible Light 14h 22m
Length of Day
13h 27m
Tomorrow will be 2m 10s longer.
Waning Crescent, 32% of the Moon is Illuminated
Today
Waning Crescent
Apr 29
New
May 6
First Quarter
May 14
Full
May 21
Last Quarter

Today's Extremes

State Highs State Lows

Community

  • Nestled In
    Nestled In
  • Stunning Sunrise
    Stunning Sunrise
  • spring flowers
    spring flowers
  • Earth Day Spectrum Ove' Blue
    Earth Day Spectrum Ove' Blue
  • BARN B&W
    BARN B&W

WunderPhotos

Upload Photos

1,704,454 photos uploaded!

WunderBlogs® & News

Nearby

Snow Depth

Station Depth Elevation
No new snow has been reported.

Coastal Water Temperatures

Place Temperature
No Stations Reporting

Earthquake Activity

City Distance Mag. Time & Date
No recent earthquake activity has been reported nearby.
Minimum magnitude displayed is 2.5.

Nearby Weather Stations

Station Location Temp. Dew Point Humidity Wind Precip. Elev Updated Type
Southern McKee, McKee, KY 59.9 °F 36 °F 40% North  at  0.0 mph 0.00 in / hr 1138 ft 7:18 PM EDT Rapid Fire
Napier Mountain, London, KY 59.5 °F 35 °F 39% ENE  at  3.8 mph 0.00 in / hr 1312 ft 7:18 PM EDT Rapid Fire
MSWO, London, KY 62.1 °F 28 °F 27% NNW  at  3.4 mph 0.00 in / hr 1163 ft 7:18 PM EDT Rapid Fire
RAWS PEABODY KY, Big Creek, KY 65 °F 26 °F 23% WSW  at  3 mph 0.00 in / hr 1464 ft 6:01 PM EDT MADIS

Show More Stations Show Fewer Stations

What do you think?

We're not finished. Please let us know what you like, what you don't like, and what you are still missing.